sensor_id;sensor_type;location;lat;lon;timestamp;P1;durP1;ratioP1;P2;durP2;ratioP2
11141;SDS011;5625;50.122;19.864;2023-10-19T00:00:55;29.20;;;20.73;;
11141;SDS011;5625;50.122;19.864;2023-10-19T00:03:23;30.13;;;22.20;;
11141;SDS011;5625;50.122;19.864;2023-10-19T00:05:55;28.23;;;21.77;;
11141;SDS011;5625;50.122;19.864;2023-10-19T00:08:23;24.13;;;19.37;;
11141;SDS011;5625;50.122;19.864;2023-10-19T00:10:52;27.43;;;20.37;;
11141;SDS011;5625;50.122;19.864;2023-10-19T00:13:30;30.77;;;21.97;;
11141;SDS011;5625;50.122;19.864;2023-10-19T00:15:58;26.83;;;20.20;;
11141;SDS011;5625;50.122;19.864;2023-10-19T00:18:26;30.40;;;21.23;;
11141;SDS011;5625;50.122;19.864;2023-10-19T00:20:58;29.87;;;20.33;;
11141;SDS011;5625;50.122;19.864;2023-10-19T00:23:26;28.33;;;21.07;;
11141;SDS011;5625;50.122;19.864;2023-10-19T00:25:58;27.07;;;20.83;;
11141;SDS011;5625;50.122;19.864;2023-10-19T00:28:36;25.97;;;20.37;;
11141;SDS011;5625;50.122;19.864;2023-10-19T00:31:05;26.53;;;20.43;;
11141;SDS011;5625;50.122;19.864;2023-10-19T00:33:35;27.23;;;19.23;;
11141;SDS011;5625;50.122;19.864;2023-10-19T00:36:09;29.50;;;22.10;;
11141;SDS011;5625;50.122;19.864;2023-10-19T00:38:39;25.30;;;19.93;;
11141;SDS011;5625;50.122;19.864;2023-10-19T00:41:15;26.73;;;20.57;;
11141;SDS011;5625;50.122;19.864;2023-10-19T00:43:49;28.23;;;20.50;;
11141;SDS011;5625;50.122;19.864;2023-10-19T00:46:24;26.87;;;20.70;;
11141;SDS011;5625;50.122;19.864;2023-10-19T00:48:59;26.20;;;19.73;;
11141;SDS011;5625;50.122;19.864;2023-10-19T00:51:33;26.03;;;19.73;;
11141;SDS011;5625;50.122;19.864;2023-10-19T00:54:21;29.43;;;19.73;;
11141;SDS011;5625;50.122;19.864;2023-10-19T00:56:58;27.30;;;19.30;;
11141;SDS011;5625;50.122;19.864;2023-10-19T00:59:31;25.10;;;18.73;;
11141;SDS011;5625;50.122;19.864;2023-10-19T01:02:05;23.47;;;18.73;;
11141;SDS011;5625;50.122;19.864;2023-10-19T01:04:44;25.10;;;19.50;;
11141;SDS011;5625;50.122;19.864;2023-10-19T01:07:17;27.27;;;19.67;;
11141;SDS011;5625;50.122;19.864;2023-10-19T01:09:49;29.37;;;21.57;;
11141;SDS011;5625;50.122;19.864;2023-10-19T01:12:19;27.17;;;19.77;;
11141;SDS011;5625;50.122;19.864;2023-10-19T01:15:02;26.67;;;21.27;;
11141;SDS011;5625;50.122;19.864;2023-10-19T01:17:32;25.73;;;20.23;;
11141;SDS011;5625;50.122;19.864;2023-10-19T01:20:09;26.57;;;21.27;;
11141;SDS011;5625;50.122;19.864;2023-10-19T01:22:51;24.57;;;20.43;;
11141;SDS011;5625;50.122;19.864;2023-10-19T01:25:44;27.57;;;20.27;;
11141;SDS011;5625;50.122;19.864;2023-10-19T01:28:17;23.77;;;19.97;;
11141;SDS011;5625;50.122;19.864;2023-10-19T01:30:45;24.87;;;20.13;;
11141;SDS011;5625;50.122;19.864;2023-10-19T01:33:18;22.23;;;18.60;;
11141;SDS011;5625;50.122;19.864;2023-10-19T01:35:47;22.53;;;19.30;;
11141;SDS011;5625;50.122;19.864;2023-10-19T01:38:34;24.17;;;18.13;;
11141;SDS011;5625;50.122;19.864;2023-10-19T01:41:03;23.67;;;17.90;;
11141;SDS011;5625;50.122;19.864;2023-10-19T01:43:33;24.77;;;19.33;;
11141;SDS011;5625;50.122;19.864;2023-10-19T01:46:07;23.73;;;20.10;;
11141;SDS011;5625;50.122;19.864;2023-10-19T01:48:39;22.67;;;19.53;;
11141;SDS011;5625;50.122;19.864;2023-10-19T01:51:11;28.47;;;20.13;;
11141;SDS011;5625;50.122;19.864;2023-10-19T01:53:41;26.20;;;20.70;;
11141;SDS011;5625;50.122;19.864;2023-10-19T01:56:11;25.03;;;19.50;;
11141;SDS011;5625;50.122;19.864;2023-10-19T01:58:39;26.77;;;20.77;;
11141;SDS011;5625;50.122;19.864;2023-10-19T02:01:09;25.90;;;19.20;;
11141;SDS011;5625;50.122;19.864;2023-10-19T02:03:43;25.10;;;19.67;;
11141;SDS011;5625;50.122;19.864;2023-10-19T02:06:14;26.87;;;19.63;;
11141;SDS011;5625;50.122;19.864;2023-10-19T02:08:48;24.07;;;19.53;;
11141;SDS011;5625;50.122;19.864;2023-10-19T02:11:19;25.93;;;19.73;;
11141;SDS011;5625;50.122;19.864;2023-10-19T02:13:48;26.53;;;19.40;;
11141;SDS011;5625;50.122;19.864;2023-10-19T02:16:17;25.67;;;19.70;;
11141;SDS011;5625;50.122;19.864;2023-10-19T02:18:48;23.30;;;19.97;;
11141;SDS011;5625;50.122;19.864;2023-10-19T02:21:17;24.63;;;18.57;;
11141;SDS011;5625;50.122;19.864;2023-10-19T02:23:49;27.60;;;19.60;;
11141;SDS011;5625;50.122;19.864;2023-10-19T02:26:18;24.33;;;20.00;;
11141;SDS011;5625;50.122;19.864;2023-10-19T02:28:46;24.80;;;19.37;;
11141;SDS011;5625;50.122;19.864;2023-10-19T02:31:17;26.63;;;20.30;;
11141;SDS011;5625;50.122;19.864;2023-10-19T02:33:46;23.27;;;19.40;;
11141;SDS011;5625;50.122;19.864;2023-10-19T02:36:18;26.33;;;19.47;;
11141;SDS011;5625;50.122;19.864;2023-10-19T02:38:46;28.80;;;21.73;;
11141;SDS011;5625;50.122;19.864;2023-10-19T02:41:20;32.40;;;21.17;;
11141;SDS011;5625;50.122;19.864;2023-10-19T02:43:48;29.20;;;20.17;;
11141;SDS011;5625;50.122;19.864;2023-10-19T02:46:17;30.97;;;22.80;;
11141;SDS011;5625;50.122;19.864;2023-10-19T02:48:47;28.47;;;20.20;;
11141;SDS011;5625;50.122;19.864;2023-10-19T02:51:16;29.97;;;22.60;;
11141;SDS011;5625;50.122;19.864;2023-10-19T02:53:45;28.60;;;22.10;;
11141;SDS011;5625;50.122;19.864;2023-10-19T02:56:14;27.90;;;21.40;;
11141;SDS011;5625;50.122;19.864;2023-10-19T02:58:44;30.83;;;22.63;;
11141;SDS011;5625;50.122;19.864;2023-10-19T03:01:16;25.03;;;19.43;;
11141;SDS011;5625;50.122;19.864;2023-10-19T03:03:49;25.80;;;20.93;;
11141;SDS011;5625;50.122;19.864;2023-10-19T03:06:20;25.67;;;20.07;;
11141;SDS011;5625;50.122;19.864;2023-10-19T03:08:51;23.50;;;19.70;;
11141;SDS011;5625;50.122;19.864;2023-10-19T03:11:24;26.07;;;20.57;;
11141;SDS011;5625;50.122;19.864;2023-10-19T03:13:53;26.13;;;19.60;;
11141;SDS011;5625;50.122;19.864;2023-10-19T03:16:21;23.87;;;19.23;;
11141;SDS011;5625;50.122;19.864;2023-10-19T03:18:50;27.50;;;19.67;;
11141;SDS011;5625;50.122;19.864;2023-10-19T03:21:18;25.43;;;20.63;;
11141;SDS011;5625;50.122;19.864;2023-10-19T03:23:45;24.57;;;19.70;;
11141;SDS011;5625;50.122;19.864;2023-10-19T03:26:14;24.50;;;19.27;;
11141;SDS011;5625;50.122;19.864;2023-10-19T03:28:50;29.03;;;19.30;;
11141;SDS011;5625;50.122;19.864;2023-10-19T03:31:23;27.93;;;20.80;;
11141;SDS011;5625;50.122;19.864;2023-10-19T03:33:52;28.40;;;20.60;;
11141;SDS011;5625;50.122;19.864;2023-10-19T03:36:25;27.10;;;20.70;;
11141;SDS011;5625;50.122;19.864;2023-10-19T03:38:54;27.20;;;20.97;;
11141;SDS011;5625;50.122;19.864;2023-10-19T03:41:25;27.30;;;20.77;;
11141;SDS011;5625;50.122;19.864;2023-10-19T03:43:57;26.47;;;21.30;;
11141;SDS011;5625;50.122;19.864;2023-10-19T03:46:26;30.47;;;21.70;;
11141;SDS011;5625;50.122;19.864;2023-10-19T03:48:57;30.00;;;21.63;;
11141;SDS011;5625;50.122;19.864;2023-10-19T03:51:30;26.60;;;20.97;;
11141;SDS011;5625;50.122;19.864;2023-10-19T03:54:06;28.17;;;20.87;;
11141;SDS011;5625;50.122;19.864;2023-10-19T03:56:48;26.87;;;21.17;;
11141;SDS011;5625;50.122;19.864;2023-10-19T03:59:17;28.17;;;20.77;;
11141;SDS011;5625;50.122;19.864;2023-10-19T04:01:47;26.43;;;20.37;;
11141;SDS011;5625;50.122;19.864;2023-10-19T04:04:15;27.63;;;21.33;;
11141;SDS011;5625;50.122;19.864;2023-10-19T04:06:44;28.73;;;22.37;;
11141;SDS011;5625;50.122;19.864;2023-10-19T04:09:15;26.63;;;21.67;;
11141;SDS011;5625;50.122;19.864;2023-10-19T04:11:44;30.47;;;22.33;;
11141;SDS011;5625;50.122;19.864;2023-10-19T04:14:16;30.27;;;22.07;;
11141;SDS011;5625;50.122;19.864;2023-10-19T04:16:44;28.97;;;21.97;;
11141;SDS011;5625;50.122;19.864;2023-10-19T04:19:15;28.33;;;20.40;;
11141;SDS011;5625;50.122;19.864;2023-10-19T04:21:43;30.37;;;22.17;;
11141;SDS011;5625;50.122;19.864;2023-10-19T04:24:13;26.77;;;21.73;;
11141;SDS011;5625;50.122;19.864;2023-10-19T04:26:41;29.10;;;22.40;;
11141;SDS011;5625;50.122;19.864;2023-10-19T04:29:09;28.73;;;22.07;;
11141;SDS011;5625;50.122;19.864;2023-10-19T04:31:39;27.13;;;21.33;;
11141;SDS011;5625;50.122;19.864;2023-10-19T04:34:17;30.97;;;22.80;;
11141;SDS011;5625;50.122;19.864;2023-10-19T04:36:47;29.40;;;22.10;;
11141;SDS011;5625;50.122;19.864;2023-10-19T04:39:15;26.90;;;21.10;;
11141;SDS011;5625;50.122;19.864;2023-10-19T04:41:45;28.57;;;22.93;;
11141;SDS011;5625;50.122;19.864;2023-10-19T04:44:16;26.80;;;21.03;;
11141;SDS011;5625;50.122;19.864;2023-10-19T04:46:44;24.60;;;20.57;;
11141;SDS011;5625;50.122;19.864;2023-10-19T04:49:12;26.70;;;21.10;;
11141;SDS011;5625;50.122;19.864;2023-10-19T04:51:44;29.97;;;20.27;;
11141;SDS011;5625;50.122;19.864;2023-10-19T04:54:12;29.83;;;21.87;;
11141;SDS011;5625;50.122;19.864;2023-10-19T04:56:40;28.57;;;21.70;;
11141;SDS011;5625;50.122;19.864;2023-10-19T04:59:08;27.90;;;20.90;;
11141;SDS011;5625;50.122;19.864;2023-10-19T05:01:36;27.90;;;22.70;;
11141;SDS011;5625;50.122;19.864;2023-10-19T05:04:06;27.03;;;21.33;;
11141;SDS011;5625;50.122;19.864;2023-10-19T05:06:35;28.37;;;22.17;;
11141;SDS011;5625;50.122;19.864;2023-10-19T05:09:05;27.03;;;21.03;;
11141;SDS011;5625;50.122;19.864;2023-10-19T05:11:34;24.83;;;20.27;;
11141;SDS011;5625;50.122;19.864;2023-10-19T05:14:02;28.13;;;20.90;;
11141;SDS011;5625;50.122;19.864;2023-10-19T05:16:31;29.37;;;21.17;;
11141;SDS011;5625;50.122;19.864;2023-10-19T05:18:59;30.00;;;22.20;;
11141;SDS011;5625;50.122;19.864;2023-10-19T05:21:30;27.20;;;20.50;;
11141;SDS011;5625;50.122;19.864;2023-10-19T05:23:58;27.27;;;20.77;;
11141;SDS011;5625;50.122;19.864;2023-10-19T05:26:28;26.80;;;22.13;;
11141;SDS011;5625;50.122;19.864;2023-10-19T05:28:56;24.60;;;19.90;;
11141;SDS011;5625;50.122;19.864;2023-10-19T05:31:25;26.37;;;20.20;;
11141;SDS011;5625;50.122;19.864;2023-10-19T05:33:54;25.50;;;19.37;;
11141;SDS011;5625;50.122;19.864;2023-10-19T05:36:23;22.93;;;19.37;;
11141;SDS011;5625;50.122;19.864;2023-10-19T05:38:51;28.60;;;19.80;;
11141;SDS011;5625;50.122;19.864;2023-10-19T05:41:19;22.93;;;19.00;;
11141;SDS011;5625;50.122;19.864;2023-10-19T05:43:49;25.83;;;19.37;;
11141;SDS011;5625;50.122;19.864;2023-10-19T05:46:17;24.40;;;18.63;;
11141;SDS011;5625;50.122;19.864;2023-10-19T05:48:48;26.57;;;19.63;;
11141;SDS011;5625;50.122;19.864;2023-10-19T05:51:17;24.93;;;19.70;;
11141;SDS011;5625;50.122;19.864;2023-10-19T05:53:45;25.10;;;18.77;;
11141;SDS011;5625;50.122;19.864;2023-10-19T05:56:15;26.30;;;18.73;;
11141;SDS011;5625;50.122;19.864;2023-10-19T05:58:43;25.23;;;19.93;;
11141;SDS011;5625;50.122;19.864;2023-10-19T06:01:16;25.30;;;18.93;;
11141;SDS011;5625;50.122;19.864;2023-10-19T06:03:45;27.73;;;20.17;;
11141;SDS011;5625;50.122;19.864;2023-10-19T06:06:13;25.63;;;19.53;;
11141;SDS011;5625;50.122;19.864;2023-10-19T06:08:41;26.30;;;18.90;;
11141;SDS011;5625;50.122;19.864;2023-10-19T06:11:10;23.93;;;18.63;;
11141;SDS011;5625;50.122;19.864;2023-10-19T06:13:38;25.77;;;18.40;;
11141;SDS011;5625;50.122;19.864;2023-10-19T06:16:06;25.90;;;20.00;;
11141;SDS011;5625;50.122;19.864;2023-10-19T06:18:36;27.90;;;19.33;;
11141;SDS011;5625;50.122;19.864;2023-10-19T06:21:04;23.50;;;18.83;;
11141;SDS011;5625;50.122;19.864;2023-10-19T06:23:32;25.63;;;19.77;;
11141;SDS011;5625;50.122;19.864;2023-10-19T06:26:00;24.10;;;19.47;;
11141;SDS011;5625;50.122;19.864;2023-10-19T06:28:37;24.10;;;19.27;;
11141;SDS011;5625;50.122;19.864;2023-10-19T06:31:07;26.53;;;18.57;;
11141;SDS011;5625;50.122;19.864;2023-10-19T06:33:37;23.73;;;17.93;;
11141;SDS011;5625;50.122;19.864;2023-10-19T06:36:08;21.50;;;17.20;;
11141;SDS011;5625;50.122;19.864;2023-10-19T06:38:36;22.97;;;16.73;;
11141;SDS011;5625;50.122;19.864;2023-10-19T06:41:09;26.47;;;16.57;;
11141;SDS011;5625;50.122;19.864;2023-10-19T06:43:39;19.93;;;16.43;;
11141;SDS011;5625;50.122;19.864;2023-10-19T06:46:07;21.47;;;16.83;;
11141;SDS011;5625;50.122;19.864;2023-10-19T06:48:40;21.07;;;16.47;;
11141;SDS011;5625;50.122;19.864;2023-10-19T06:51:09;18.57;;;15.07;;
11141;SDS011;5625;50.122;19.864;2023-10-19T06:53:38;20.70;;;16.23;;
11141;SDS011;5625;50.122;19.864;2023-10-19T06:56:06;21.47;;;16.00;;
11141;SDS011;5625;50.122;19.864;2023-10-19T06:58:34;18.53;;;14.90;;
11141;SDS011;5625;50.122;19.864;2023-10-19T07:01:05;19.60;;;16.37;;
11141;SDS011;5625;50.122;19.864;2023-10-19T07:03:35;19.43;;;15.63;;
11141;SDS011;5625;50.122;19.864;2023-10-19T07:06:05;18.90;;;14.87;;
11141;SDS011;5625;50.122;19.864;2023-10-19T07:08:39;18.37;;;14.87;;
11141;SDS011;5625;50.122;19.864;2023-10-19T07:11:09;18.10;;;14.47;;
11141;SDS011;5625;50.122;19.864;2023-10-19T07:13:37;18.90;;;14.37;;
11141;SDS011;5625;50.122;19.864;2023-10-19T07:16:06;20.57;;;14.40;;
11141;SDS011;5625;50.122;19.864;2023-10-19T07:18:38;18.20;;;14.00;;
11141;SDS011;5625;50.122;19.864;2023-10-19T07:21:08;18.37;;;14.17;;
11141;SDS011;5625;50.122;19.864;2023-10-19T07:23:38;15.83;;;13.97;;
11141;SDS011;5625;50.122;19.864;2023-10-19T07:26:07;16.00;;;13.40;;
11141;SDS011;5625;50.122;19.864;2023-10-19T07:28:37;18.20;;;14.60;;
11141;SDS011;5625;50.122;19.864;2023-10-19T07:31:06;17.40;;;14.13;;
11141;SDS011;5625;50.122;19.864;2023-10-19T07:33:39;18.40;;;15.33;;
11141;SDS011;5625;50.122;19.864;2023-10-19T07:36:13;20.03;;;14.13;;
11141;SDS011;5625;50.122;19.864;2023-10-19T07:38:41;18.07;;;14.27;;
11141;SDS011;5625;50.122;19.864;2023-10-19T07:41:14;20.30;;;15.60;;
11141;SDS011;5625;50.122;19.864;2023-10-19T07:43:42;18.87;;;14.60;;
11141;SDS011;5625;50.122;19.864;2023-10-19T07:46:11;18.43;;;14.43;;
11141;SDS011;5625;50.122;19.864;2023-10-19T07:48:39;19.00;;;14.60;;
11141;SDS011;5625;50.122;19.864;2023-10-19T07:51:08;18.10;;;15.07;;
11141;SDS011;5625;50.122;19.864;2023-10-19T07:53:39;18.53;;;14.53;;
11141;SDS011;5625;50.122;19.864;2023-10-19T07:56:07;17.63;;;14.40;;
11141;SDS011;5625;50.122;19.864;2023-10-19T07:58:35;17.93;;;14.93;;
11141;SDS011;5625;50.122;19.864;2023-10-19T08:01:03;18.57;;;14.77;;
11141;SDS011;5625;50.122;19.864;2023-10-19T08:03:32;18.27;;;14.33;;
11141;SDS011;5625;50.122;19.864;2023-10-19T08:06:01;18.20;;;14.90;;
11141;SDS011;5625;50.122;19.864;2023-10-19T08:08:32;18.13;;;14.57;;
11141;SDS011;5625;50.122;19.864;2023-10-19T08:11:02;18.83;;;15.57;;
11141;SDS011;5625;50.122;19.864;2023-10-19T08:13:32;21.53;;;16.17;;
11141;SDS011;5625;50.122;19.864;2023-10-19T08:15:59;25.87;;;18.90;;
11141;SDS011;5625;50.122;19.864;2023-10-19T08:18:27;26.03;;;18.73;;
11141;SDS011;5625;50.122;19.864;2023-10-19T08:20:56;22.87;;;16.20;;
11141;SDS011;5625;50.122;19.864;2023-10-19T08:23:25;22.40;;;16.83;;
11141;SDS011;5625;50.122;19.864;2023-10-19T08:25:54;22.47;;;16.40;;
11141;SDS011;5625;50.122;19.864;2023-10-19T08:28:24;23.93;;;17.23;;
11141;SDS011;5625;50.122;19.864;2023-10-19T08:30:53;21.70;;;17.03;;
11141;SDS011;5625;50.122;19.864;2023-10-19T08:33:26;21.43;;;16.80;;
11141;SDS011;5625;50.122;19.864;2023-10-19T08:35:56;21.70;;;17.00;;
11141;SDS011;5625;50.122;19.864;2023-10-19T08:38:26;19.93;;;15.73;;
11141;SDS011;5625;50.122;19.864;2023-10-19T08:40:55;21.20;;;16.00;;
11141;SDS011;5625;50.122;19.864;2023-10-19T08:43:26;23.17;;;16.27;;
11141;SDS011;5625;50.122;19.864;2023-10-19T08:45:54;20.47;;;15.43;;
11141;SDS011;5625;50.122;19.864;2023-10-19T08:48:23;18.67;;;15.23;;
11141;SDS011;5625;50.122;19.864;2023-10-19T08:50:51;21.43;;;16.43;;
11141;SDS011;5625;50.122;19.864;2023-10-19T08:53:25;19.27;;;15.57;;
11141;SDS011;5625;50.122;19.864;2023-10-19T08:55:55;23.87;;;15.37;;
11141;SDS011;5625;50.122;19.864;2023-10-19T08:58:25;20.60;;;16.03;;
11141;SDS011;5625;50.122;19.864;2023-10-19T09:00:54;22.87;;;16.17;;
11141;SDS011;5625;50.122;19.864;2023-10-19T09:03:23;19.30;;;15.33;;
11141;SDS011;5625;50.122;19.864;2023-10-19T09:05:53;19.87;;;15.47;;
11141;SDS011;5625;50.122;19.864;2023-10-19T09:08:22;23.80;;;16.70;;
11141;SDS011;5625;50.122;19.864;2023-10-19T09:10:51;28.13;;;15.40;;
11141;SDS011;5625;50.122;19.864;2023-10-19T09:13:21;19.37;;;15.53;;
11141;SDS011;5625;50.122;19.864;2023-10-19T09:15:53;20.43;;;15.43;;
11141;SDS011;5625;50.122;19.864;2023-10-19T09:18:24;20.73;;;15.50;;
11141;SDS011;5625;50.122;19.864;2023-10-19T09:20:55;19.60;;;15.13;;
11141;SDS011;5625;50.122;19.864;2023-10-19T09:23:29;21.47;;;15.60;;
11141;SDS011;5625;50.122;19.864;2023-10-19T09:25:58;20.43;;;15.77;;
11141;SDS011;5625;50.122;19.864;2023-10-19T09:28:29;20.10;;;15.53;;
11141;SDS011;5625;50.122;19.864;2023-10-19T09:31:01;17.90;;;15.27;;
11141;SDS011;5625;50.122;19.864;2023-10-19T09:33:31;18.23;;;16.00;;
11141;SDS011;5625;50.122;19.864;2023-10-19T09:36:02;21.30;;;15.40;;
11141;SDS011;5625;50.122;19.864;2023-10-19T09:38:42;23.13;;;15.87;;
11141;SDS011;5625;50.122;19.864;2023-10-19T09:41:13;25.07;;;16.30;;
11141;SDS011;5625;50.122;19.864;2023-10-19T09:43:44;21.73;;;16.00;;
11141;SDS011;5625;50.122;19.864;2023-10-19T09:46:20;22.37;;;16.87;;
11141;SDS011;5625;50.122;19.864;2023-10-19T09:48:50;20.70;;;16.43;;
11141;SDS011;5625;50.122;19.864;2023-10-19T09:51:18;21.60;;;16.33;;
11141;SDS011;5625;50.122;19.864;2023-10-19T09:53:48;20.60;;;15.93;;
11141;SDS011;5625;50.122;19.864;2023-10-19T09:56:21;21.53;;;18.07;;
11141;SDS011;5625;50.122;19.864;2023-10-19T09:58:57;19.53;;;16.40;;
11141;SDS011;5625;50.122;19.864;2023-10-19T10:04:34;20.00;;;16.03;;
11141;SDS011;5625;50.122;19.864;2023-10-19T10:07:04;20.53;;;15.93;;
11141;SDS011;5625;50.122;19.864;2023-10-19T10:09:34;23.67;;;16.40;;
11141;SDS011;5625;50.122;19.864;2023-10-19T10:12:16;21.70;;;17.77;;
11141;SDS011;5625;50.122;19.864;2023-10-19T10:14:57;20.23;;;17.00;;
11141;SDS011;5625;50.122;19.864;2023-10-19T10:17:30;21.60;;;16.20;;
11141;SDS011;5625;50.122;19.864;2023-10-19T10:23:15;21.83;;;16.77;;
11141;SDS011;5625;50.122;19.864;2023-10-19T10:25:45;20.73;;;16.77;;
11141;SDS011;5625;50.122;19.864;2023-10-19T10:28:14;19.67;;;15.83;;
11141;SDS011;5625;50.122;19.864;2023-10-19T10:33:44;22.70;;;17.23;;
11141;SDS011;5625;50.122;19.864;2023-10-19T10:36:13;18.23;;;16.00;;
11141;SDS011;5625;50.122;19.864;2023-10-19T10:38:43;22.00;;;17.40;;
11141;SDS011;5625;50.122;19.864;2023-10-19T10:41:12;18.40;;;15.87;;
11141;SDS011;5625;50.122;19.864;2023-10-19T10:43:50;19.10;;;15.00;;
11141;SDS011;5625;50.122;19.864;2023-10-19T10:46:23;18.77;;;15.33;;
11141;SDS011;5625;50.122;19.864;2023-10-19T10:48:57;20.40;;;14.93;;
11141;SDS011;5625;50.122;19.864;2023-10-19T10:51:26;21.83;;;14.93;;
11141;SDS011;5625;50.122;19.864;2023-10-19T10:53:57;21.17;;;16.67;;
11141;SDS011;5625;50.122;19.864;2023-10-19T10:56:25;20.23;;;15.13;;
11141;SDS011;5625;50.122;19.864;2023-10-19T10:58:55;19.53;;;15.10;;
11141;SDS011;5625;50.122;19.864;2023-10-19T11:01:30;19.37;;;16.37;;
11141;SDS011;5625;50.122;19.864;2023-10-19T11:04:08;20.30;;;17.23;;
11141;SDS011;5625;50.122;19.864;2023-10-19T11:06:49;21.97;;;17.07;;
11141;SDS011;5625;50.122;19.864;2023-10-19T11:09:19;22.37;;;18.07;;
11141;SDS011;5625;50.122;19.864;2023-10-19T11:11:48;23.27;;;18.00;;
11141;SDS011;5625;50.122;19.864;2023-10-19T11:14:18;19.90;;;17.77;;
11141;SDS011;5625;50.122;19.864;2023-10-19T11:16:50;24.87;;;17.80;;
11141;SDS011;5625;50.122;19.864;2023-10-19T11:19:20;23.43;;;18.50;;
11141;SDS011;5625;50.122;19.864;2023-10-19T11:21:54;22.73;;;18.57;;
11141;SDS011;5625;50.122;19.864;2023-10-19T11:24:26;20.93;;;17.87;;
11141;SDS011;5625;50.122;19.864;2023-10-19T11:27:00;22.33;;;17.77;;
11141;SDS011;5625;50.122;19.864;2023-10-19T11:29:28;21.80;;;17.63;;
11141;SDS011;5625;50.122;19.864;2023-10-19T11:31:57;22.43;;;17.13;;
11141;SDS011;5625;50.122;19.864;2023-10-19T11:34:28;20.07;;;17.13;;
11141;SDS011;5625;50.122;19.864;2023-10-19T11:36:57;23.50;;;18.27;;
11141;SDS011;5625;50.122;19.864;2023-10-19T11:39:27;21.60;;;17.50;;
11141;SDS011;5625;50.122;19.864;2023-10-19T11:41:55;22.87;;;17.17;;
11141;SDS011;5625;50.122;19.864;2023-10-19T11:44:24;24.37;;;17.10;;
11141;SDS011;5625;50.122;19.864;2023-10-19T11:46:52;19.43;;;16.63;;
11141;SDS011;5625;50.122;19.864;2023-10-19T11:49:20;22.97;;;17.47;;
11141;SDS011;5625;50.122;19.864;2023-10-19T11:51:53;21.67;;;17.40;;
11141;SDS011;5625;50.122;19.864;2023-10-19T11:54:23;21.83;;;17.70;;
11141;SDS011;5625;50.122;19.864;2023-10-19T11:56:53;23.53;;;17.50;;
11141;SDS011;5625;50.122;19.864;2023-10-19T11:59:21;21.93;;;16.93;;
11141;SDS011;5625;50.122;19.864;2023-10-19T12:01:49;23.17;;;19.00;;
11141;SDS011;5625;50.122;19.864;2023-10-19T12:04:18;27.77;;;21.17;;
11141;SDS011;5625;50.122;19.864;2023-10-19T12:06:46;33.53;;;26.37;;
11141;SDS011;5625;50.122;19.864;2023-10-19T12:09:16;37.23;;;26.93;;
11141;SDS011;5625;50.122;19.864;2023-10-19T12:11:44;32.47;;;23.83;;
11141;SDS011;5625;50.122;19.864;2023-10-19T12:14:14;36.57;;;27.53;;
11141;SDS011;5625;50.122;19.864;2023-10-19T12:16:43;32.80;;;25.20;;
11141;SDS011;5625;50.122;19.864;2023-10-19T12:19:12;31.00;;;23.43;;
11141;SDS011;5625;50.122;19.864;2023-10-19T12:21:42;27.87;;;22.33;;
11141;SDS011;5625;50.122;19.864;2023-10-19T12:24:11;31.70;;;23.03;;
11141;SDS011;5625;50.122;19.864;2023-10-19T12:26:40;25.87;;;20.83;;
11141;SDS011;5625;50.122;19.864;2023-10-19T12:29:09;24.03;;;20.63;;
11141;SDS011;5625;50.122;19.864;2023-10-19T12:31:38;22.37;;;19.13;;
11141;SDS011;5625;50.122;19.864;2023-10-19T12:34:07;21.93;;;18.03;;
11141;SDS011;5625;50.122;19.864;2023-10-19T12:36:38;18.77;;;16.77;;
11141;SDS011;5625;50.122;19.864;2023-10-19T12:39:08;23.53;;;19.23;;
11141;SDS011;5625;50.122;19.864;2023-10-19T12:41:43;20.23;;;17.97;;
11141;SDS011;5625;50.122;19.864;2023-10-19T12:44:13;23.97;;;18.83;;
11141;SDS011;5625;50.122;19.864;2023-10-19T12:46:42;22.97;;;19.57;;
11141;SDS011;5625;50.122;19.864;2023-10-19T12:49:10;21.40;;;19.17;;
11141;SDS011;5625;50.122;19.864;2023-10-19T12:51:42;23.97;;;19.70;;
11141;SDS011;5625;50.122;19.864;2023-10-19T12:54:12;22.10;;;18.47;;
11141;SDS011;5625;50.122;19.864;2023-10-19T12:56:41;23.80;;;19.23;;
11141;SDS011;5625;50.122;19.864;2023-10-19T12:59:13;20.67;;;18.43;;
11141;SDS011;5625;50.122;19.864;2023-10-19T13:01:44;25.30;;;19.57;;
11141;SDS011;5625;50.122;19.864;2023-10-19T13:04:15;23.60;;;19.33;;
11141;SDS011;5625;50.122;19.864;2023-10-19T13:06:44;23.33;;;20.37;;
11141;SDS011;5625;50.122;19.864;2023-10-19T13:09:13;21.77;;;19.43;;
11141;SDS011;5625;50.122;19.864;2023-10-19T13:11:48;22.30;;;19.57;;
11141;SDS011;5625;50.122;19.864;2023-10-19T13:14:20;23.97;;;19.27;;
11141;SDS011;5625;50.122;19.864;2023-10-19T13:16:49;21.00;;;18.80;;
11141;SDS011;5625;50.122;19.864;2023-10-19T13:19:18;22.27;;;19.33;;
11141;SDS011;5625;50.122;19.864;2023-10-19T13:21:50;23.17;;;19.03;;
11141;SDS011;5625;50.122;19.864;2023-10-19T13:24:18;24.27;;;20.70;;
11141;SDS011;5625;50.122;19.864;2023-10-19T13:26:48;21.80;;;19.20;;
11141;SDS011;5625;50.122;19.864;2023-10-19T13:29:17;22.13;;;19.63;;
11141;SDS011;5625;50.122;19.864;2023-10-19T13:31:48;20.27;;;18.03;;
11141;SDS011;5625;50.122;19.864;2023-10-19T13:34:17;21.50;;;19.07;;
11141;SDS011;5625;50.122;19.864;2023-10-19T13:36:45;21.10;;;18.90;;
11141;SDS011;5625;50.122;19.864;2023-10-19T13:39:13;21.33;;;19.03;;
11141;SDS011;5625;50.122;19.864;2023-10-19T13:41:43;24.27;;;20.03;;
11141;SDS011;5625;50.122;19.864;2023-10-19T13:44:11;24.47;;;20.40;;
11141;SDS011;5625;50.122;19.864;2023-10-19T13:46:40;30.40;;;22.00;;
11141;SDS011;5625;50.122;19.864;2023-10-19T13:49:10;27.77;;;21.27;;
11141;SDS011;5625;50.122;19.864;2023-10-19T13:51:38;25.60;;;20.67;;
11141;SDS011;5625;50.122;19.864;2023-10-19T13:54:06;29.57;;;21.37;;
11141;SDS011;5625;50.122;19.864;2023-10-19T13:56:34;31.20;;;21.77;;
11141;SDS011;5625;50.122;19.864;2023-10-19T13:59:03;23.87;;;20.00;;
11141;SDS011;5625;50.122;19.864;2023-10-19T14:01:31;25.17;;;20.93;;
11141;SDS011;5625;50.122;19.864;2023-10-19T14:04:00;25.70;;;20.73;;
11141;SDS011;5625;50.122;19.864;2023-10-19T14:06:30;24.00;;;20.13;;
11141;SDS011;5625;50.122;19.864;2023-10-19T14:08:58;26.27;;;20.67;;
11141;SDS011;5625;50.122;19.864;2023-10-19T14:11:26;24.93;;;20.87;;
11141;SDS011;5625;50.122;19.864;2023-10-19T14:13:55;25.13;;;21.00;;
11141;SDS011;5625;50.122;19.864;2023-10-19T14:16:23;25.63;;;21.47;;
11141;SDS011;5625;50.122;19.864;2023-10-19T14:18:53;25.17;;;20.90;;
11141;SDS011;5625;50.122;19.864;2023-10-19T14:21:22;23.07;;;20.53;;
11141;SDS011;5625;50.122;19.864;2023-10-19T14:23:54;25.17;;;20.23;;
11141;SDS011;5625;50.122;19.864;2023-10-19T14:26:23;24.10;;;21.47;;
11141;SDS011;5625;50.122;19.864;2023-10-19T14:28:51;24.33;;;21.67;;
11141;SDS011;5625;50.122;19.864;2023-10-19T14:31:20;29.20;;;22.00;;
11141;SDS011;5625;50.122;19.864;2023-10-19T14:33:48;26.83;;;21.67;;
11141;SDS011;5625;50.122;19.864;2023-10-19T14:36:16;27.23;;;22.57;;
11141;SDS011;5625;50.122;19.864;2023-10-19T14:38:48;28.07;;;22.43;;
11141;SDS011;5625;50.122;19.864;2023-10-19T14:41:18;28.73;;;23.20;;
11141;SDS011;5625;50.122;19.864;2023-10-19T14:43:46;29.67;;;22.23;;
11141;SDS011;5625;50.122;19.864;2023-10-19T14:46:14;26.77;;;23.03;;
11141;SDS011;5625;50.122;19.864;2023-10-19T14:48:43;25.50;;;21.77;;